createdAt,value
2022-08-17T00:01:38.504Z,99.90
2022-08-17T00:04:19.529Z,99.90
2022-08-17T00:06:49.096Z,99.90
2022-08-17T00:09:18.667Z,99.90
2022-08-17T00:12:35.009Z,99.90
2022-08-17T00:14:36.315Z,99.90
2022-08-17T00:17:04.841Z,99.90
2022-08-17T00:19:33.105Z,99.90
2022-08-17T00:22:31.450Z,99.90
2022-08-17T00:24:50.498Z,99.90
2022-08-17T00:27:18.231Z,99.90
2022-08-17T00:29:46.089Z,99.90
2022-08-17T00:33:11.926Z,99.90
2022-08-17T00:35:00.902Z,99.90
2022-08-17T00:37:28.052Z,99.90
2022-08-17T00:39:55.428Z,99.90
2022-08-17T00:42:23.830Z,99.90
2022-08-17T00:44:53.565Z,99.90
2022-08-17T00:47:20.709Z,99.90
2022-08-17T00:49:47.842Z,99.90
2022-08-17T00:52:16.832Z,99.90
2022-08-17T00:54:45.745Z,99.90
2022-08-17T00:57:21.415Z,99.90
2022-08-17T01:00:01.731Z,99.90
2022-08-17T01:02:41.757Z,99.90
2022-08-17T01:05:12.782Z,99.90
2022-08-17T01:07:40.324Z,99.90
2022-08-17T01:11:00.253Z,99.90
2022-08-17T01:12:57.102Z,99.90
2022-08-17T01:15:24.430Z,99.90
2022-08-17T01:17:51.722Z,99.90
2022-08-17T01:20:18.854Z,99.90
2022-08-17T01:22:46.272Z,99.90
2022-08-17T01:25:14.090Z,99.90
2022-08-17T01:27:41.905Z,99.90
2022-08-17T01:30:58.895Z,99.90
2022-08-17T01:32:58.119Z,99.90
2022-08-17T01:35:25.275Z,99.90
2022-08-17T01:37:52.388Z,99.90
2022-08-17T01:40:35.018Z,99.90
2022-08-17T01:43:06.147Z,99.90
2022-08-17T01:45:34.309Z,99.90
2022-08-17T01:48:01.487Z,99.90
2022-08-17T01:50:35.087Z,99.90
2022-08-17T01:53:07.765Z,99.90
2022-08-17T01:56:04.297Z,99.90
2022-08-17T01:58:32.890Z,99.90
2022-08-17T02:01:01.506Z,99.90
2022-08-17T02:03:29.832Z,99.90
2022-08-17T02:05:57.265Z,99.90
2022-08-17T02:08:38.761Z,99.90
2022-08-17T02:11:15.944Z,99.90
2022-08-17T02:13:43.972Z,99.90
2022-08-17T02:16:11.159Z,99.90
2022-08-17T02:18:38.309Z,99.90
2022-08-17T02:21:05.971Z,99.90
2022-08-17T02:23:34.549Z,99.90
2022-08-17T02:26:02.225Z,99.90
2022-08-17T02:28:29.467Z,99.90
2022-08-17T02:31:02.204Z,99.90
2022-08-17T02:33:41.982Z,99.90
2022-08-17T02:36:09.966Z,99.90
2022-08-17T02:38:38.149Z,99.90
2022-08-17T02:41:05.731Z,99.90
2022-08-17T02:43:33.018Z,99.90
2022-08-17T02:46:00.609Z,99.90
2022-08-17T02:48:30.648Z,99.90
2022-08-17T02:50:59.907Z,99.90
2022-08-17T02:53:27.675Z,99.90
2022-08-17T02:56:03.036Z,99.90
2022-08-17T02:58:34.913Z,99.90
2022-08-17T03:01:04.218Z,99.90
2022-08-17T03:03:31.387Z,99.90
2022-08-17T03:05:58.849Z,99.90
2022-08-17T03:08:26.217Z,99.90
2022-08-17T03:10:53.687Z,99.90
2022-08-17T03:13:21.082Z,99.90
2022-08-17T03:15:48.603Z,99.90
2022-08-17T03:18:25.370Z,99.90
2022-08-17T03:20:58.008Z,99.90
2022-08-17T03:23:26.028Z,99.90
2022-08-17T03:25:55.023Z,99.90
2022-08-17T03:28:23.307Z,99.90
2022-08-17T03:30:51.437Z,99.90
2022-08-17T03:33:19.460Z,99.90
2022-08-17T03:35:46.770Z,99.90
2022-08-17T03:38:15.887Z,99.90
2022-08-17T03:40:56.878Z,99.90
2022-08-17T03:43:25.704Z,99.90
2022-08-17T03:46:34.190Z,99.90
2022-08-17T03:49:17.108Z,99.90
2022-08-17T03:52:03.008Z,99.90
2022-08-17T03:54:49.205Z,99.90
2022-08-17T03:57:16.844Z,99.90
2022-08-17T03:59:44.906Z,99.90
2022-08-17T04:02:23.457Z,99.90
2022-08-17T04:04:51.242Z,99.90
2022-08-17T04:07:23.755Z,99.90
2022-08-17T04:09:50.989Z,99.90
2022-08-17T04:12:19.313Z,99.90
2022-08-17T04:14:52.827Z,99.90
2022-08-17T04:17:25.944Z,99.90
2022-08-17T04:19:53.932Z,99.90
2022-08-17T04:22:31.159Z,99.90
2022-08-17T04:25:02.741Z,99.90
2022-08-17T04:27:29.901Z,99.90
2022-08-17T04:29:57.102Z,99.90
2022-08-17T04:33:09.820Z,99.90
2022-08-17T04:35:11.503Z,99.90
2022-08-17T04:37:38.648Z,99.90
2022-08-17T04:40:29.023Z,99.90
2022-08-17T04:43:02.984Z,99.90
2022-08-17T04:45:31.940Z,99.90
2022-08-17T04:48:00.509Z,99.90
2022-08-17T04:50:27.792Z,99.90
2022-08-17T04:52:56.802Z,99.90
2022-08-17T04:55:24.134Z,99.90
2022-08-17T04:57:51.295Z,99.90
2022-08-17T05:00:18.965Z,99.90
2022-08-17T05:02:49.566Z,99.90
2022-08-17T05:05:20.769Z,99.90
2022-08-17T05:07:48.431Z,99.90
2022-08-17T05:10:15.627Z,99.90
2022-08-17T05:12:42.963Z,99.90
2022-08-17T05:15:16.268Z,99.90
2022-08-17T05:17:44.113Z,99.90
2022-08-17T05:20:11.568Z,99.90
2022-08-17T05:22:46.858Z,99.90
2022-08-17T05:25:14.659Z,99.90
2022-08-17T05:27:42.185Z,99.90
2022-08-17T05:30:11.208Z,99.90
2022-08-17T05:32:40.310Z,99.90
2022-08-17T05:35:08.022Z,99.90
2022-08-17T05:37:35.145Z,99.90
2022-08-17T05:40:02.462Z,99.90
2022-08-17T05:42:29.679Z,99.90
2022-08-17T05:44:59.954Z,99.90
2022-08-17T05:47:27.570Z,99.90
2022-08-17T05:49:54.921Z,99.90
2022-08-17T05:52:40.716Z,99.90
2022-08-17T05:55:18.568Z,99.90
2022-08-17T05:58:04.520Z,99.90
2022-08-17T06:00:37.443Z,99.90
2022-08-17T06:03:28.116Z,99.90
2022-08-17T06:06:01.604Z,99.90
2022-08-17T06:08:34.905Z,99.90
2022-08-17T06:11:11.366Z,99.90
2022-08-17T06:13:54.065Z,99.90
2022-08-17T06:16:34.355Z,99.90
2022-08-17T06:19:14.221Z,99.90
2022-08-17T06:21:42.812Z,99.90
2022-08-17T06:24:16.166Z,99.90
2022-08-17T06:26:45.670Z,99.90
2022-08-17T06:29:18.690Z,99.90
2022-08-17T06:31:46.343Z,99.90
2022-08-17T06:34:13.757Z,99.90
2022-08-17T06:37:00.540Z,99.90
2022-08-17T06:39:44.912Z,99.90
2022-08-17T06:42:55.042Z,99.90
2022-08-17T06:45:05.567Z,99.90
2022-08-17T06:47:37.910Z,99.90
2022-08-17T06:50:11.964Z,99.90
2022-08-17T06:52:46.407Z,99.90
2022-08-17T06:55:19.113Z,99.90
2022-08-17T06:57:50.294Z,99.90
2022-08-17T07:00:19.858Z,99.90
2022-08-17T07:02:54.487Z,99.90
2022-08-17T07:05:23.301Z,99.90
2022-08-17T07:08:03.504Z,99.90
2022-08-17T07:10:44.850Z,99.90
2022-08-17T07:13:18.400Z,99.90
2022-08-17T07:15:47.651Z,99.90
2022-08-17T07:18:14.912Z,99.90
2022-08-17T07:20:43.768Z,99.90
2022-08-17T07:23:39.794Z,99.90
2022-08-17T07:26:07.959Z,99.90
2022-08-17T07:28:35.804Z,99.90
2022-08-17T07:31:04.851Z,99.90
2022-08-17T07:33:37.056Z,99.90
2022-08-17T07:36:04.534Z,99.90
2022-08-17T07:38:32.916Z,99.90
2022-08-17T07:41:08.519Z,99.90
2022-08-17T07:43:37.696Z,99.90
2022-08-17T07:46:35.981Z,99.90
2022-08-17T07:49:09.121Z,99.90
2022-08-17T07:51:56.666Z,99.90
2022-08-17T07:54:31.812Z,99.90
2022-08-17T07:57:02.069Z,99.90
2022-08-17T07:59:34.160Z,99.90
2022-08-17T08:02:06.309Z,99.90
2022-08-17T08:05:00.740Z,99.90
2022-08-17T08:07:34.918Z,99.90
2022-08-17T08:10:08.091Z,99.90
2022-08-17T08:12:38.546Z,99.90
2022-08-17T08:15:14.011Z,99.90
2022-08-17T08:18:00.914Z,99.90
2022-08-17T08:20:52.266Z,99.90
2022-08-17T08:23:33.645Z,99.90
2022-08-17T08:26:18.285Z,99.90
2022-08-17T08:28:51.457Z,99.90
2022-08-17T08:31:42.645Z,99.90
2022-08-17T08:35:00.165Z,99.90
2022-08-17T08:37:40.524Z,99.90
2022-08-17T08:40:25.421Z,99.90
2022-08-17T08:43:07.968Z,99.90
2022-08-17T08:45:38.621Z,99.90
2022-08-17T08:48:56.876Z,99.90
2022-08-17T08:51:23.922Z,99.90
2022-08-17T08:54:08.311Z,99.90
2022-08-17T08:57:22.316Z,99.90
2022-08-17T09:00:01.091Z,99.90
2022-08-17T09:03:03.983Z,99.90
2022-08-17T09:05:31.251Z,99.90
2022-08-17T09:07:58.926Z,99.90
2022-08-17T09:10:30.068Z,99.90
2022-08-17T09:13:15.702Z,99.90
2022-08-17T09:15:45.426Z,99.90
2022-08-17T09:19:01.390Z,99.90
2022-08-17T09:21:27.164Z,99.90
2022-08-17T09:24:00.290Z,99.90
2022-08-17T09:26:31.172Z,99.90
2022-08-17T09:29:01.669Z,99.20
2022-08-17T09:31:48.929Z,99.90
2022-08-17T09:34:19.693Z,99.90
2022-08-17T09:37:07.920Z,99.10
2022-08-17T09:39:39.609Z,97.90
2022-08-17T09:42:11.027Z,98.60
2022-08-17T09:44:40.352Z,98.30
2022-08-17T09:47:22.540Z,95.40
2022-08-17T09:49:53.118Z,96.40
2022-08-17T09:52:28.751Z,96.20
2022-08-17T09:54:56.854Z,95.10
2022-08-17T09:57:31.052Z,94.50
2022-08-17T10:00:16.810Z,97.50
2022-08-17T10:03:03.340Z,97.20
2022-08-17T10:05:39.594Z,96.20
2022-08-17T10:08:24.439Z,96.30
2022-08-17T10:10:56.502Z,94.80
2022-08-17T10:13:36.434Z,92.90
2022-08-17T10:16:15.842Z,92.20
2022-08-17T10:19:02.373Z,90.10
2022-08-17T10:21:50.269Z,88.00
2022-08-17T10:25:21.638Z,84.90
2022-08-17T10:27:49.094Z,82.40
2022-08-17T10:30:17.865Z,83.60
2022-08-17T10:32:48.606Z,83.70
2022-08-17T10:35:16.860Z,83.80
2022-08-17T10:38:04.355Z,82.90
2022-08-17T10:40:35.001Z,82.60
2022-08-17T10:43:20.390Z,84.80
2022-08-17T10:46:10.422Z,86.50
2022-08-17T10:48:40.487Z,83.80
2022-08-17T10:51:10.518Z,87.70
2022-08-17T10:53:40.920Z,88.10
2022-08-17T10:56:14.317Z,91.30
2022-08-17T10:58:55.769Z,90.30
2022-08-17T11:01:23.152Z,90.90
2022-08-17T11:03:55.041Z,88.50
2022-08-17T11:06:22.208Z,84.50
2022-08-17T11:09:01.223Z,81.90
2022-08-17T11:11:37.579Z,81.90
2022-08-17T11:14:14.229Z,84.40
2022-08-17T11:16:48.175Z,87.50
2022-08-17T11:19:33.766Z,86.90
2022-08-17T11:22:21.182Z,83.80
2022-08-17T11:24:51.639Z,78.90
2022-08-17T11:27:30.147Z,78.80
2022-08-17T11:30:02.991Z,77.60
2022-08-17T11:32:30.342Z,74.40
2022-08-17T11:35:12.165Z,72.70
2022-08-17T11:37:50.025Z,70.80
2022-08-17T11:40:28.089Z,70.60
2022-08-17T11:42:55.255Z,67.90
2022-08-17T11:45:32.396Z,69.50
2022-08-17T11:48:28.207Z,71.20
2022-08-17T11:51:19.639Z,71.50
2022-08-17T11:53:46.908Z,73.50
2022-08-17T11:56:34.171Z,75.00
2022-08-17T11:59:01.894Z,75.50
2022-08-17T12:01:49.063Z,74.80
2022-08-17T12:04:19.188Z,70.60
2022-08-17T12:06:51.955Z,72.70
2022-08-17T12:09:21.296Z,75.80
2022-08-17T12:12:11.159Z,75.60
2022-08-17T12:15:09.083Z,72.50
2022-08-17T12:17:41.184Z,72.90
2022-08-17T12:20:15.250Z,73.60
2022-08-17T12:22:45.263Z,69.00
2022-08-17T12:25:19.987Z,73.20
2022-08-17T12:28:05.448Z,74.10
2022-08-17T12:30:35.180Z,75.30
2022-08-17T12:33:02.787Z,71.70
2022-08-17T12:35:33.240Z,71.90
2022-08-17T12:38:01.324Z,70.70
2022-08-17T12:40:31.697Z,73.50
2022-08-17T12:43:01.989Z,75.00
2022-08-17T12:45:30.890Z,73.40
2022-08-17T12:48:08.636Z,71.00
2022-08-17T12:50:37.341Z,70.40
2022-08-17T12:53:10.479Z,66.40
2022-08-17T12:55:39.064Z,66.60
2022-08-17T12:58:09.875Z,65.80
2022-08-17T13:00:47.344Z,70.60
2022-08-17T13:03:19.998Z,70.00
2022-08-17T13:05:53.392Z,71.50
2022-08-17T13:08:23.709Z,69.40
2022-08-17T13:10:55.061Z,67.60
2022-08-17T13:13:30.094Z,62.00
2022-08-17T13:15:58.407Z,64.40
2022-08-17T13:18:39.648Z,63.60
2022-08-17T13:21:11.552Z,63.30
2022-08-17T13:23:38.702Z,65.40
2022-08-17T13:26:15.691Z,65.40
2022-08-17T13:28:50.155Z,66.50
2022-08-17T13:31:20.874Z,67.80
2022-08-17T13:33:48.342Z,68.20
2022-08-17T13:36:32.242Z,65.40
2022-08-17T13:39:18.925Z,64.70
2022-08-17T13:41:47.821Z,67.10
2022-08-17T13:44:31.435Z,68.90
2022-08-17T13:46:59.885Z,67.00
2022-08-17T13:49:33.901Z,68.60
2022-08-17T13:52:38.018Z,72.60
2022-08-17T13:55:07.759Z,73.90
2022-08-17T13:57:35.151Z,76.90
2022-08-17T14:00:12.327Z,72.00
2022-08-17T14:02:39.460Z,71.40
2022-08-17T14:05:06.792Z,70.60
2022-08-17T14:07:35.701Z,71.80
2022-08-17T14:10:05.989Z,75.10
2022-08-17T14:12:34.055Z,79.40
2022-08-17T14:15:01.377Z,80.30
2022-08-17T14:17:36.542Z,73.70
2022-08-17T14:20:06.532Z,72.60
2022-08-17T14:22:35.200Z,66.30
2022-08-17T14:25:02.450Z,71.30
2022-08-17T14:27:33.434Z,70.80
2022-08-17T14:30:09.245Z,77.00
2022-08-17T14:32:37.200Z,83.70
2022-08-17T14:35:05.131Z,79.60
2022-08-17T14:37:32.399Z,76.80
2022-08-17T14:40:01.006Z,75.50
2022-08-17T14:42:30.504Z,77.00
2022-08-17T14:44:58.898Z,79.60
2022-08-17T14:47:30.140Z,82.50
2022-08-17T14:49:57.387Z,80.00
2022-08-17T14:52:24.402Z,78.70
2022-08-17T14:54:52.235Z,77.70
2022-08-17T14:57:26.197Z,81.50
2022-08-17T15:00:01.371Z,83.00
2022-08-17T15:02:29.922Z,92.50
2022-08-17T15:05:02.104Z,90.30
2022-08-17T15:07:30.268Z,92.60
2022-08-17T15:09:58.912Z,94.70
2022-08-17T15:12:32.361Z,96.20
2022-08-17T15:15:00.983Z,98.20
2022-08-17T15:17:44.447Z,90.50
2022-08-17T15:20:16.545Z,91.10
2022-08-17T15:22:43.984Z,80.90
2022-08-17T15:25:11.392Z,89.90
2022-08-17T15:27:38.814Z,92.10
2022-08-17T15:30:07.308Z,90.10
2022-08-17T15:32:36.117Z,87.60
2022-08-17T15:35:06.184Z,92.80
2022-08-17T15:37:33.537Z,92.60
2022-08-17T15:40:03.698Z,95.90
2022-08-17T15:42:30.817Z,98.20
2022-08-17T15:44:57.770Z,99.50
2022-08-17T15:47:24.837Z,99.90
2022-08-17T15:49:55.456Z,99.90
2022-08-17T15:52:26.401Z,99.90
2022-08-17T15:54:58.175Z,99.90
2022-08-17T15:57:25.905Z,99.90
2022-08-17T15:59:55.257Z,99.90
2022-08-17T16:03:44.837Z,99.90
2022-08-17T16:05:22.160Z,99.90
2022-08-17T16:07:52.235Z,99.90
2022-08-17T16:10:19.823Z,99.90
2022-08-17T16:12:47.802Z,99.90
2022-08-17T16:15:15.034Z,99.90
2022-08-17T16:17:42.330Z,99.90
2022-08-17T16:20:20.393Z,99.90
2022-08-17T16:22:48.481Z,99.90
2022-08-17T16:25:18.208Z,99.90
2022-08-17T16:27:46.150Z,99.90
2022-08-17T16:30:17.412Z,99.90
2022-08-17T16:32:44.929Z,99.90
2022-08-17T16:35:12.755Z,99.90
2022-08-17T16:37:44.586Z,99.90
2022-08-17T16:40:14.396Z,99.90
2022-08-17T16:42:41.707Z,99.90
2022-08-17T16:45:16.863Z,99.90
2022-08-17T16:47:44.639Z,99.90
2022-08-17T16:50:13.588Z,99.90
2022-08-17T16:52:41.235Z,99.90
2022-08-17T16:55:16.915Z,99.90
2022-08-17T16:57:50.684Z,99.90
2022-08-17T17:00:19.578Z,99.90
2022-08-17T17:02:47.787Z,99.90
2022-08-17T17:05:29.799Z,99.90
2022-08-17T17:08:07.894Z,99.90
2022-08-17T17:10:41.106Z,99.90
2022-08-17T17:13:11.333Z,99.90
2022-08-17T17:15:47.237Z,99.90
2022-08-17T17:18:15.972Z,99.90
2022-08-17T17:20:47.590Z,99.90
2022-08-17T17:23:33.220Z,99.90
2022-08-17T17:26:03.006Z,99.90
2022-08-17T17:28:35.558Z,99.90
2022-08-17T17:31:12.187Z,99.90
2022-08-17T17:33:40.539Z,99.90
2022-08-17T17:36:13.201Z,99.90
2022-08-17T17:38:40.154Z,99.90
2022-08-17T17:41:11.231Z,99.90
2022-08-17T17:43:40.027Z,99.90
2022-08-17T17:46:27.052Z,99.90
2022-08-17T17:48:58.698Z,99.90
2022-08-17T17:51:54.764Z,99.90
2022-08-17T17:54:32.498Z,99.90
2022-08-17T17:57:14.372Z,99.90
2022-08-17T17:59:51.723Z,99.90
2022-08-17T18:02:52.024Z,99.90
2022-08-17T18:05:39.700Z,99.90
2022-08-17T18:08:34.166Z,99.90
2022-08-17T18:11:24.973Z,99.90
2022-08-17T18:14:14.505Z,99.90
2022-08-17T18:16:42.872Z,99.90
2022-08-17T18:19:19.937Z,99.90
2022-08-17T18:21:52.877Z,99.90
2022-08-17T18:24:30.543Z,99.90
2022-08-17T18:26:59.189Z,99.90
2022-08-17T18:29:26.308Z,99.90
2022-08-17T18:32:15.035Z,99.90
2022-08-17T18:34:49.714Z,99.90
2022-08-17T18:37:36.736Z,99.90
2022-08-17T18:40:23.431Z,99.90
2022-08-17T18:42:50.513Z,99.90
2022-08-17T18:45:33.659Z,99.90
2022-08-17T18:48:00.774Z,99.90
2022-08-17T18:50:34.155Z,99.90
2022-08-17T18:53:18.968Z,99.90
2022-08-17T18:55:45.976Z,99.90
2022-08-17T18:58:24.693Z,99.90
2022-08-17T19:00:51.755Z,99.90
2022-08-17T19:03:18.802Z,99.90
2022-08-17T19:05:56.680Z,99.90
2022-08-17T19:08:23.715Z,99.90
2022-08-17T19:10:56.114Z,99.90
2022-08-17T19:13:28.887Z,99.90
2022-08-17T19:16:15.968Z,99.90
2022-08-17T19:18:48.432Z,99.90
2022-08-17T19:21:18.479Z,99.90
2022-08-17T19:23:54.413Z,99.90
2022-08-17T19:26:50.793Z,99.90
2022-08-17T19:29:30.541Z,99.90
2022-08-17T19:31:58.838Z,99.90
2022-08-17T19:34:33.063Z,99.90
2022-08-17T19:37:09.079Z,99.90
2022-08-17T19:39:38.498Z,99.90
2022-08-17T19:42:05.744Z,99.90
2022-08-17T19:44:41.907Z,99.90
2022-08-17T19:47:43.823Z,99.90
2022-08-17T19:50:22.465Z,99.90
2022-08-17T19:53:08.506Z,99.90
2022-08-17T19:55:43.779Z,99.90
2022-08-17T19:58:34.184Z,99.90
2022-08-17T20:01:01.685Z,99.90
2022-08-17T20:03:52.152Z,99.90
2022-08-17T20:06:20.507Z,99.90
2022-08-17T20:08:47.511Z,99.90
2022-08-17T20:11:20.671Z,99.90
2022-08-17T20:13:49.850Z,99.90
2022-08-17T20:16:17.688Z,99.90
2022-08-17T20:18:50.008Z,99.90
2022-08-17T20:21:20.754Z,99.90
2022-08-17T20:23:59.017Z,99.90
2022-08-17T20:26:58.475Z,99.90
2022-08-17T20:29:39.791Z,99.90
2022-08-17T20:32:14.758Z,99.90
2022-08-17T20:34:45.250Z,99.90
2022-08-17T20:37:15.447Z,99.90
2022-08-17T20:40:06.084Z,99.90
2022-08-17T20:42:34.140Z,99.90
2022-08-17T20:45:20.036Z,99.90
2022-08-17T20:48:24.022Z,99.90
2022-08-17T20:50:50.778Z,99.90
2022-08-17T20:53:37.480Z,99.90
2022-08-17T20:56:04.619Z,99.90
2022-08-17T20:58:31.665Z,99.90
2022-08-17T21:01:01.746Z,99.90
2022-08-17T21:03:47.641Z,99.90
2022-08-17T21:06:17.931Z,99.90
2022-08-17T21:08:58.827Z,99.90
2022-08-17T21:12:03.445Z,99.90
2022-08-17T21:14:19.154Z,99.90
2022-08-17T21:16:58.791Z,99.90
2022-08-17T21:19:44.464Z,99.90
2022-08-17T21:22:25.989Z,99.90
2022-08-17T21:24:57.861Z,99.90
2022-08-17T21:27:30.820Z,99.90
2022-08-17T21:30:10.073Z,99.90
2022-08-17T21:32:41.790Z,99.90
2022-08-17T21:35:23.831Z,99.90
2022-08-17T21:37:53.760Z,99.90
2022-08-17T21:40:29.159Z,99.90
2022-08-17T21:43:04.984Z,99.90
2022-08-17T21:45:37.306Z,99.90
2022-08-17T21:48:11.177Z,99.90
2022-08-17T21:50:41.790Z,99.90
2022-08-17T21:53:12.209Z,99.90
2022-08-17T21:55:39.299Z,99.90
2022-08-17T21:58:14.034Z,99.90
2022-08-17T22:00:44.749Z,99.90
2022-08-17T22:03:22.655Z,99.90
2022-08-17T22:05:51.531Z,99.90
2022-08-17T22:08:20.332Z,99.90
2022-08-17T22:10:49.164Z,99.90
2022-08-17T22:13:24.255Z,99.90
2022-08-17T22:16:28.427Z,99.90
2022-08-17T22:18:58.381Z,99.90
2022-08-17T22:21:25.969Z,99.90
2022-08-17T22:24:06.962Z,99.90
2022-08-17T22:27:13.895Z,99.90
2022-08-17T22:29:44.017Z,99.90
2022-08-17T22:32:11.069Z,99.90
2022-08-17T22:34:40.970Z,99.90
2022-08-17T22:37:28.192Z,99.90
2022-08-17T22:39:59.002Z,99.90
2022-08-17T22:42:26.382Z,99.90
2022-08-17T22:44:54.217Z,99.90
2022-08-17T22:47:31.214Z,99.90
2022-08-17T22:50:02.561Z,99.90
2022-08-17T22:53:17.396Z,99.90
2022-08-17T22:56:13.424Z,99.90
2022-08-17T22:59:17.853Z,99.90
2022-08-17T23:01:45.817Z,99.90
2022-08-17T23:04:29.491Z,99.90
2022-08-17T23:06:56.468Z,99.90
2022-08-17T23:09:23.543Z,99.90
2022-08-17T23:11:52.456Z,99.90
2022-08-17T23:14:20.594Z,99.90
2022-08-17T23:16:48.817Z,99.90
2022-08-17T23:19:18.080Z,99.90
2022-08-17T23:21:45.467Z,99.90
2022-08-17T23:24:17.810Z,99.90
2022-08-17T23:26:44.873Z,99.90
2022-08-17T23:29:11.862Z,99.90
2022-08-17T23:31:39.059Z,99.90
2022-08-17T23:34:09.238Z,99.90
2022-08-17T23:36:36.309Z,99.90
2022-08-17T23:39:03.931Z,99.90
2022-08-17T23:41:33.083Z,99.90
2022-08-17T23:44:01.121Z,99.90
2022-08-17T23:46:28.105Z,99.90
2022-08-17T23:48:55.215Z,99.90
2022-08-17T23:51:24.953Z,99.90
2022-08-17T23:53:55.620Z,99.90
2022-08-17T23:56:26.160Z,99.90
2022-08-17T23:58:54.949Z,99.90
